Time;durP1;ratioP1;P1;durP2;ratioP2;P2;SDS_P1;SDS_P2;PMS_P1;PMS_P2;Temp;Humidity;BMP_temperature;BMP_pressure;BME280_temperature;BME280_humidity;BME280_pressure;Samples;Min_cycle;Max_cycle;Signal;HPM_P1;HPM_P2
2021/07/24 00:01:14;;;;;;;5.55;4.57;;;;;;;24.20;68.33;100159.41;5117634;27;20032;-75
2021/07/24 00:03:43;;;;;;;6.47;5.47;;;;;;;24.30;67.92;100161.91;5116338;28;20389;-77
2021/07/24 00:06:12;;;;;;;7.32;6.47;;;;;;;24.20;68.46;100173.63;5116886;28;20476;-77
2021/07/24 00:08:45;;;;;;;6.57;5.90;;;;;;;24.10;68.87;100177.63;5116557;28;20474;-76
2021/07/24 00:11:13;;;;;;;7.18;5.72;;;;;;;24.10;68.73;100167.03;5116512;28;20477;-74
2021/07/24 00:13:42;;;;;;;9.15;6.60;;;;;;;24.12;68.11;100175.09;5133279;27;20028;-74
2021/07/24 00:16:10;;;;;;;5.85;5.35;;;;;;;24.07;68.41;100173.63;5132908;27;20132;-76
2021/07/24 00:25:24;;;;;;;5.80;5.30;;;;;;;23.98;67.32;100173.53;5117449;28;20531;-76
2021/07/24 00:27:49;;;;;;;6.13;5.53;;;;;;;24.00;67.10;100177.50;5115837;28;20028;-76
2021/07/24 00:30:17;;;;;;;5.95;4.97;;;;;;;23.97;67.27;100178.44;5115880;28;20038;-78
2021/07/24 00:32:48;;;;;;;5.60;5.05;;;;;;;23.89;67.71;100176.25;5117593;28;20406;-78
2021/07/24 00:35:17;;;;;;;6.05;5.45;;;;;;;23.87;68.25;100173.09;5115682;28;20055;-76
2021/07/24 00:37:44;;;;;;;6.28;5.22;;;;;;;23.86;68.46;100182.84;5116222;28;20031;-76
2021/07/24 00:40:17;;;;;;;7.90;5.40;;;;;;;23.94;67.43;100172.84;5115850;27;20114;-77
2021/07/24 00:42:48;;;;;;;7.35;5.47;;;;;;;23.91;67.14;100180.22;5116289;28;20057;-76
2021/07/24 00:45:15;;;;;;;7.15;4.95;;;;;;;23.95;66.30;100175.22;5116132;28;20026;-75
2021/07/24 00:47:44;;;;;;;5.35;4.85;;;;;;;23.86;67.35;100177.16;5132614;27;20035;-78
2021/07/24 00:50:13;;;;;;;7.57;6.22;;;;;;;23.89;67.33;100168.53;5115719;28;20020;-77
2021/07/24 00:52:42;;;;;;;9.93;7.10;;;;;;;23.77;68.42;100172.97;5132992;27;20464;-78
2021/07/24 00:55:15;;;;;;;7.07;6.18;;;;;;;23.77;69.01;100164.44;5115636;28;20480;-77
2021/07/24 00:57:41;;;;;;;10.23;6.63;;;;;;;23.70;69.22;100164.69;5117106;27;20066;-75
2021/07/24 01:00:12;;;;;;;9.90;7.13;;;;;;;23.63;69.64;100169.75;5115241;28;20038;-76
2021/07/24 01:02:38;;;;;;;10.80;8.00;;;;;;;23.56;69.89;100178.47;5132351;27;20032;-74
2021/07/24 01:05:06;;;;;;;8.35;7.57;;;;;;;23.58;69.63;100175.97;5115931;28;20331;-75
2021/07/24 01:07:39;;;;;;;8.77;7.32;;;;;;;23.51;69.27;100172.09;5133021;27;20020;-77
2021/07/24 01:10:06;;;;;;;8.18;7.43;;;;;;;23.50;69.31;100172.56;5098262;28;20109;-77
2021/07/24 01:12:33;;;;;;;9.25;7.78;;;;;;;23.67;68.79;100170.47;5115084;27;20023;-76
2021/07/24 01:15:02;;;;;;;9.05;8.15;;;;;;;23.61;68.88;100173.03;5114984;28;20178;-77
2021/07/24 01:17:28;;;;;;;9.20;8.32;;;;;;;23.61;69.03;100178.72;5114918;28;20043;-75
2021/07/24 01:19:56;;;;;;;9.38;8.43;;;;;;;23.65;69.33;100172.94;5132255;27;20019;-75
2021/07/24 01:22:27;;;;;;;10.18;8.00;;;;;;;23.66;69.57;100175.34;5115206;28;20118;-74
2021/07/24 01:24:56;;;;;;;9.25;8.30;;;;;;;23.62;69.67;100174.63;5114760;28;20024;-77
2021/07/24 01:27:24;;;;;;;11.35;7.63;;;;;;;23.60;69.89;100176.34;5114770;28;20034;-75
2021/07/24 01:29:52;;;;;;;9.02;8.13;;;;;;;23.68;69.81;100172.84;5114684;28;20469;-77
2021/07/24 01:32:23;;;;;;;11.02;9.00;;;;;;;23.67;70.03;100173.28;5114928;28;20059;-74
2021/07/24 01:34:51;;;;;;;10.65;9.13;;;;;;;23.60;69.94;100170.66;5114591;28;20088;-75
2021/07/24 01:37:17;;;;;;;12.65;8.05;;;;;;;23.56;69.97;100167.13;5114533;28;20039;-75
2021/07/24 01:39:48;;;;;;;11.68;8.98;;;;;;;23.64;69.57;100165.66;5114664;28;20084;-77
2021/07/24 01:42:17;;;;;;;12.23;8.45;;;;;;;23.55;69.97;100162.69;5131792;27;20370;-77
2021/07/24 01:44:48;;;;;;;9.68;8.55;;;;;;;23.48;70.33;100158.81;5114387;28;20063;-74
2021/07/24 01:47:16;;;;;;;11.15;7.95;;;;;;;23.50;70.28;100162.00;5114946;28;20028;-76
2021/07/24 01:52:51;;;;;;;9.20;8.25;;;;;;;23.38;70.32;100157.09;5115759;28;20123;-77
2021/07/24 01:55:28;;;;;;;9.38;8.48;;;;;;;23.40;70.17;100156.66;5115787;28;20031;-75
2021/07/24 01:58:00;;;;;;;14.90;10.32;;;;;;;23.30;70.55;100157.75;5114131;28;20085;-76
2021/07/24 02:00:32;;;;;;;10.27;8.60;;;;;;;23.19;70.62;100150.34;5113996;28;20036;-75
2021/07/24 02:03:06;;;;;;;9.10;8.20;;;;;;;23.24;70.52;100146.16;5114580;28;20131;-75
2021/07/24 02:05:48;;;;;;;9.55;8.48;;;;;;;23.36;70.07;100151.06;5112940;28;20032;-75
2021/07/24 02:08:25;;;;;;;10.52;9.05;;;;;;;23.37;69.96;100154.69;5115830;27;20073;-74
2021/07/24 02:10:51;;;;;;;10.57;8.48;;;;;;;23.33;70.25;100143.47;5115157;28;20374;-75
2021/07/24 02:13:21;;;;;;;8.73;7.10;;;;;;;23.26;69.66;100140.81;5114174;28;20015;-77
2021/07/24 02:15:50;;;;;;;8.55;7.50;;;;;;;23.28;69.04;100144.03;5130701;27;20178;-77
2021/07/24 02:18:17;;;;;;;16.17;14.48;;;;;;;23.31;69.27;100145.16;5115364;28;20020;-76
2021/07/24 02:20:47;;;;;;;19.08;17.08;;;;;;;23.30;69.07;100141.53;5114968;28;20035;-74
2021/07/24 02:23:17;;;;;;;17.00;15.38;;;;;;;23.48;68.55;100144.59;5113712;28;20105;-75
2021/07/24 02:25:43;;;;;;;15.90;13.15;;;;;;;23.35;68.82;100143.81;5113634;28;20038;-76
2021/07/24 02:28:14;;;;;;;16.17;10.32;;;;;;;23.40;68.67;100150.97;5113584;28;20023;-75
2021/07/24 02:30:43;;;;;;;18.02;16.23;;;;;;;23.34;68.82;100136.53;5114861;28;20027;-74
2021/07/24 02:33:11;;;;;;;17.15;15.43;;;;;;;23.36;69.08;100148.22;5113530;28;20028;-74
2021/07/24 02:35:37;;;;;;;11.48;10.27;;;;;;;23.47;68.87;100151.53;5113741;28;20028;-76
2021/07/24 02:38:07;;;;;;;10.38;8.77;;;;;;;23.53;68.61;100146.88;5113692;28;20485;-76
2021/07/24 02:40:36;;;;;;;9.38;8.10;;;;;;;23.49;68.78;100149.06;5113631;28;20028;-77
2021/07/24 02:43:02;;;;;;;9.05;8.15;;;;;;;23.41;69.36;100142.00;5114600;28;20474;-73
2021/07/24 02:45:30;;;;;;;9.15;8.15;;;;;;;23.31;69.79;100148.78;5113210;28;20066;-76
2021/07/24 02:47:58;;;;;;;11.60;9.40;;;;;;;23.34;69.59;100147.09;5113790;28;20032;-76
2021/07/24 02:50:26;;;;;;;10.98;7.88;;;;;;;23.28;69.70;100146.88;5113269;28;20032;-76
2021/07/24 02:52:51;;;;;;;9.85;8.75;;;;;;;23.21;70.00;100149.91;5113151;28;20028;-76
2021/07/24 02:55:20;;;;;;;9.82;8.45;;;;;;;23.21;70.29;100155.56;5113395;28;20135;-75
2021/07/24 02:57:48;;;;;;;12.38;8.93;;;;;;;23.26;69.88;100150.13;5113106;28;20047;-74
2021/07/24 03:00:16;;;;;;;9.68;8.77;;;;;;;23.23;70.77;100150.25;5113295;28;20027;-78
2021/07/24 03:02:42;;;;;;;11.07;8.73;;;;;;;23.13;71.34;100143.66;5112990;28;20027;-76
2021/07/24 03:05:10;;;;;;;10.88;9.23;;;;;;;23.12;71.95;100141.28;5113567;28;20131;-75
2021/07/24 03:07:38;;;;;;;10.38;9.27;;;;;;;23.06;72.15;100149.50;5112953;28;20027;-77
2021/07/24 03:10:07;;;;;;;10.38;8.40;;;;;;;23.07;72.26;100136.16;5112934;28;20039;-76
2021/07/24 03:12:33;;;;;;;11.85;8.98;;;;;;;23.07;72.45;100150.34;5112891;28;20030;-77
2021/07/24 03:15:01;;;;;;;9.18;8.25;;;;;;;23.08;72.15;100147.03;5113845;28;20456;-77
2021/07/24 03:17:29;;;;;;;10.40;9.38;;;;;;;23.09;72.67;100147.84;5112581;28;20115;-78
2021/07/24 03:19:58;;;;;;;11.68;10.57;;;;;;;23.26;71.64;100152.19;5112987;28;20085;-76
2021/07/24 03:22:24;;;;;;;10.10;8.10;;;;;;;23.23;71.33;100153.09;5112802;28;20037;-75
2021/07/24 03:24:50;;;;;;;9.50;8.50;;;;;;;23.22;71.26;100145.81;5113551;28;20108;-76
2021/07/24 03:27:22;;;;;;;9.68;7.75;;;;;;;23.26;70.41;100149.34;5129933;28;20023;-75
2021/07/24 03:29:53;;;;;;;12.07;7.20;;;;;;;23.17;71.18;100146.34;5129835;28;20028;-77
2021/07/24 03:32:24;;;;;;;9.52;8.70;;;;;;;23.11;71.44;100142.50;5114264;28;20024;-77
2021/07/24 03:34:55;;;;;;;13.40;9.13;;;;;;;23.12;71.52;100142.06;5112611;28;20028;-76
2021/07/24 03:37:25;;;;;;;9.00;8.20;;;;;;;23.12;71.47;100146.94;5112678;28;20119;-76
2021/07/24 03:39:56;;;;;;;9.85;8.98;;;;;;;23.10;71.77;100146.56;5112839;28;20477;-78
2021/07/24 03:42:24;;;;;;;10.98;9.57;;;;;;;23.16;71.33;100153.28;5112890;28;20027;-76
2021/07/24 03:44:53;;;;;;;12.32;9.80;;;;;;;23.08;71.97;100152.72;5112587;28;20032;-76
2021/07/24 03:47:21;;;;;;;11.63;9.75;;;;;;;23.17;71.58;100152.84;5112597;28;20035;-74
2021/07/24 03:49:49;;;;;;;14.45;10.43;;;;;;;23.17;71.61;100152.03;5112564;28;20038;-77
2021/07/24 03:52:18;;;;;;;13.25;9.70;;;;;;;23.18;71.48;100150.81;5114062;28;20028;-76
2021/07/24 03:54:48;;;;;;;12.13;10.73;;;;;;;23.19;71.34;100146.72;5129649;28;20027;-74
2021/07/24 03:57:18;;;;;;;10.95;9.85;;;;;;;23.16;71.73;100147.63;5112940;28;20024;-75
2021/07/24 03:59:52;;;;;;;13.23;11.48;;;;;;;23.10;71.97;100143.75;5112329;28;20088;-76
2021/07/24 04:02:23;;;;;;;19.52;14.60;;;;;;;23.10;71.63;100149.41;5112122;28;20039;-74
2021/07/24 04:04:52;;;;;;;19.83;15.80;;;;;;;23.11;71.57;100156.69;5112426;28;20023;-75
2021/07/24 04:07:25;;;;;;;22.25;18.10;;;;;;;23.06;71.51;100146.69;5113303;28;20359;-82
2021/07/24 04:09:58;;;;;;;24.42;18.95;;;;;;;23.14;71.51;100161.47;5112610;28;20103;-75
2021/07/24 04:12:26;;;;;;;;;;;;;;;23.21;70.74;100159.22;5112748;28;20031;-75
2021/07/24 04:14:52;;;;;;;23.92;19.73;;;;;;;23.17;70.95;100167.06;5111915;28;19916;-76
2021/07/24 04:17:20;;;;;;;19.40;17.15;;;;;;;23.20;71.33;100160.47;5113564;28;20512;-78
2021/07/24 04:19:51;;;;;;;20.92;17.15;;;;;;;23.65;69.44;100168.06;5112713;28;20028;-75
2021/07/24 04:22:19;;;;;;;18.10;14.00;;;;;;;23.91;68.32;100163.16;5112233;28;20470;-79
2021/07/24 04:24:49;;;;;;;13.80;12.27;;;;;;;24.11;68.22;100170.66;5112257;28;20470;-79
2021/07/24 04:27:15;;;;;;;13.85;12.07;;;;;;;24.44;66.66;100172.00;5112153;28;20038;-76
2021/07/24 04:29:41;;;;;;;15.27;12.10;;;;;;;24.72;65.17;100172.28;5114353;28;20122;-78
2021/07/24 04:32:09;;;;;;;13.02;10.93;;;;;;;24.94;64.44;100169.47;5115785;28;20436;-77
2021/07/24 04:34:38;;;;;;;13.18;9.80;;;;;;;25.16;63.70;100164.59;5116384;28;20032;-78
2021/07/24 04:37:06;;;;;;;12.60;10.20;;;;;;;25.48;62.46;100169.06;5115859;28;20026;-76
2021/07/24 04:39:37;;;;;;;9.60;8.60;;;;;;;25.77;61.75;100162.28;5116234;28;20030;-78
2021/07/24 04:42:03;;;;;;;9.43;8.45;;;;;;;26.17;60.48;100162.28;5117104;28;20026;-78
2021/07/24 04:44:33;;;;;;;9.20;8.23;;;;;;;26.48;59.24;100165.06;5132676;27;20118;-78
2021/07/24 04:46:59;;;;;;;8.35;7.40;;;;;;;26.83;58.31;100170.47;5116080;28;20024;-76
2021/07/24 04:49:24;;;;;;;8.57;6.90;;;;;;;27.00;57.39;100168.88;5116086;28;20431;-75
2021/07/24 04:51:52;;;;;;;9.93;7.93;;;;;;;27.36;56.78;100175.84;5115633;28;20091;-77
2021/07/24 04:54:18;;;;;;;8.07;7.10;;;;;;;27.67;55.96;100179.25;5115456;28;20032;-75
2021/07/24 04:56:49;;;;;;;12.13;7.30;;;;;;;27.91;55.34;100169.97;5115411;28;20081;-78
2021/07/24 04:59:15;;;;;;;6.03;5.43;;;;;;;28.23;54.66;100168.41;5115777;28;20370;-76
2021/07/24 05:01:45;;;;;;;9.40;6.20;;;;;;;28.57;53.14;100175.69;5132617;27;20023;-76
2021/07/24 05:04:12;;;;;;;7.95;6.10;;;;;;;28.82;53.18;100179.34;5115196;28;20127;-76
2021/07/24 05:06:43;;;;;;;7.72;6.97;;;;;;;29.14;51.97;100183.38;5116439;28;20035;-78
2021/07/24 05:09:13;;;;;;;8.10;6.63;;;;;;;29.42;51.46;100181.03;5114803;28;20037;-77
2021/07/24 05:11:41;;;;;;;6.57;5.85;;;;;;;29.75;51.06;100186.59;5115334;28;20023;-76
2021/07/24 05:14:06;;;;;;;6.55;6.00;;;;;;;30.05;50.03;100187.34;5114730;28;20072;-77
2021/07/24 05:16:37;;;;;;;6.60;6.00;;;;;;;30.18;49.53;100196.44;5114901;28;20028;-76
2021/07/24 05:19:11;;;;;;;9.73;6.13;;;;;;;30.35;49.18;100193.00;5115135;28;20074;-78
2021/07/24 05:21:39;;;;;;;7.88;6.03;;;;;;;30.56;48.39;100191.75;5132265;27;20099;-77
2021/07/24 05:24:07;;;;;;;7.72;5.80;;;;;;;30.69;48.82;100188.53;5114784;28;20130;-79
2021/07/24 05:26:37;;;;;;;7.00;5.72;;;;;;;30.76;48.18;100188.13;5114649;28;20031;-77
2021/07/24 05:29:05;;;;;;;9.35;5.72;;;;;;;30.98;48.12;100190.47;5114737;28;20032;-78
2021/07/24 05:31:36;;;;;;;10.10;6.72;;;;;;;30.92;47.91;100183.88;5114969;28;20027;-75
2021/07/24 05:34:02;;;;;;;6.82;6.15;;;;;;;31.24;47.11;100176.91;5114610;28;20047;-78
2021/07/24 05:36:28;;;;;;;10.02;6.95;;;;;;;30.84;47.68;100182.72;5114472;28;20049;-78
2021/07/24 05:39:01;;;;;;;8.63;6.20;;;;;;;30.67;48.44;100182.47;5115030;27;20027;-77
2021/07/24 05:41:29;;;;;;;8.40;7.32;;;;;;;29.86;49.96;100177.38;5114595;28;20114;-78
2021/07/24 05:43:57;;;;;;;9.20;6.80;;;;;;;29.61;50.07;100158.72;5114873;28;20067;-78
2021/07/24 05:46:28;;;;;;;11.40;7.45;;;;;;;29.61;51.52;100185.28;5114557;28;20118;-76
2021/07/24 05:48:56;;;;;;;9.25;6.47;;;;;;;29.50;51.85;100176.47;5116351;27;20063;-76
2021/07/24 05:51:24;;;;;;;7.78;7.03;;;;;;;28.96;53.11;100178.59;5114202;28;20052;-75
2021/07/24 05:53:54;;;;;;;8.13;7.22;;;;;;;29.02;53.85;100179.50;5114803;28;20390;-78
2021/07/24 05:56:22;;;;;;;9.05;6.88;;;;;;;29.79;51.52;100183.53;5114270;28;20032;-76
2021/07/24 05:58:50;;;;;;;6.72;6.07;;;;;;;29.83;51.23;100182.03;5114227;28;20056;-75
2021/07/24 06:01:15;;;;;;;7.75;6.82;;;;;;;29.22;51.86;100179.63;5114067;28;20487;-77
2021/07/24 06:03:43;;;;;;;9.68;7.53;;;;;;;29.05;52.72;100186.31;5114063;28;20028;-76
2021/07/24 06:06:13;;;;;;;11.18;7.30;;;;;;;29.56;51.57;100186.00;5113992;28;20474;-77
2021/07/24 06:08:43;;;;;;;10.45;7.47;;;;;;;29.52;50.97;100185.38;5115262;28;20032;-78
2021/07/24 06:11:11;;;;;;;9.32;8.13;;;;;;;29.30;52.74;100180.03;5113957;28;20019;-79
2021/07/24 06:13:43;;;;;;;11.05;7.05;;;;;;;28.59;55.05;100178.06;5113818;28;20179;-76
2021/07/24 06:16:11;;;;;;;9.13;8.23;;;;;;;29.36;52.30;100188.75;5113252;28;20056;-77
2021/07/24 06:18:40;;;;;;;10.15;7.18;;;;;;;29.79;50.70;100186.41;5115281;28;20055;-78
2021/07/24 06:21:16;;;;;;;8.98;7.28;;;;;;;29.60;51.94;100180.84;5131016;27;20084;-78
2021/07/24 06:23:47;;;;;;;8.38;7.43;;;;;;;29.15;53.93;100176.38;5113928;28;20028;-78
2021/07/24 06:26:12;;;;;;;6.97;6.32;;;;;;;29.34;53.62;100179.84;5113720;28;20031;-77
2021/07/24 06:28:40;;;;;;;9.35;6.45;;;;;;;29.80;52.19;100176.50;5113603;28;20084;-79
2021/07/24 06:31:11;;;;;;;6.88;6.15;;;;;;;29.77;52.21;100181.13;5114568;27;20078;-79
2021/07/24 06:33:39;;;;;;;7.72;5.70;;;;;;;29.83;52.08;100181.22;5114029;28;20028;-76
2021/07/24 06:36:05;;;;;;;10.15;5.90;;;;;;;30.12;50.67;100186.94;5113354;28;20085;-77
2021/07/24 06:38:31;;;;;;;8.88;7.28;;;;;;;29.96;51.51;100187.44;5113357;28;20023;-76
2021/07/24 06:41:01;;;;;;;8.23;7.20;;;;;;;30.33;51.12;100192.72;5112898;28;20023;-77
2021/07/24 06:43:29;;;;;;;8.68;6.70;;;;;;;30.39;50.52;100182.91;5115057;28;20020;-78
2021/07/24 06:45:58;;;;;;;9.10;6.35;;;;;;;30.83;49.33;100175.41;5113176;28;20023;-76
2021/07/24 06:48:29;;;;;;;8.55;6.93;;;;;;;31.15;47.96;100179.16;5113228;28;20080;-79
2021/07/24 06:50:54;;;;;;;8.10;7.10;;;;;;;30.98;49.01;100176.09;5113260;28;20458;-81
2021/07/24 06:53:22;;;;;;;11.07;9.57;;;;;;;30.67;49.89;100180.41;5112657;28;20088;-76
2021/07/24 06:55:56;;;;;;;9.52;7.68;;;;;;;30.67;49.24;100180.41;5113032;28;20039;-76
2021/07/24 06:58:22;;;;;;;12.13;8.30;;;;;;;30.83;48.86;100176.19;5112964;28;20016;-79
2021/07/24 07:00:52;;;;;;;9.35;8.35;;;;;;;30.67;48.92;100171.00;5112589;28;20035;-79
2021/07/24 07:03:21;;;;;;;10.63;8.77;;;;;;;30.66;49.10;100181.69;5112967;28;20038;-78
2021/07/24 07:05:48;;;;;;;10.05;8.05;;;;;;;31.67;46.81;100179.97;5112902;28;20038;-76
2021/07/24 07:08:23;;;;;;;10.80;7.53;;;;;;;32.18;44.68;100160.25;5114175;28;20050;-77
2021/07/24 07:10:52;;;;;;;13.27;9.52;;;;;;;32.17;45.37;100182.44;5114173;28;20054;-76
2021/07/24 07:13:19;;;;;;;10.10;8.38;;;;;;;32.24;44.87;100179.13;5113816;28;20038;-78
2021/07/24 07:15:47;;;;;;;9.10;7.72;;;;;;;32.88;42.87;100176.84;5129571;27;20517;-79
2021/07/24 07:18:15;;;;;;;11.32;6.47;;;;;;;33.13;42.31;100180.06;5113019;28;20039;-76
2021/07/24 07:20:49;;;;;;;7.53;6.82;;;;;;;33.28;41.60;100181.41;5130128;27;20129;-75
2021/07/24 07:23:19;;;;;;;8.13;5.60;;;;;;;33.52;40.51;100186.75;5129926;27;20023;-77
2021/07/24 07:25:49;;;;;;;11.73;5.10;;;;;;;33.56;40.14;100180.72;5129862;28;20114;-78
2021/07/24 07:28:17;;;;;;;6.97;5.22;;;;;;;33.45;39.14;100180.69;5112715;28;20023;-78
2021/07/24 07:30:45;;;;;;;4.95;4.47;;;;;;;33.51;38.39;100179.41;5112624;28;20027;-76
2021/07/24 07:33:11;;;;;;;5.70;5.07;;;;;;;33.83;37.23;100179.94;5113171;28;20047;-78
2021/07/24 07:35:38;;;;;;;6.75;4.20;;;;;;;34.69;36.29;100190.84;5112571;28;20386;-78
2021/07/24 07:38:09;;;;;;;5.05;3.75;;;;;;;35.53;34.10;100178.84;5114485;28;20039;-77
2021/07/24 07:40:38;;;;;;;6.25;4.40;;;;;;;35.78;33.56;100176.78;5112438;28;20525;-78
2021/07/24 07:43:09;;;;;;;4.22;3.92;;;;;;;36.02;32.75;100186.88;5112495;28;20027;-78
2021/07/24 07:45:37;;;;;;;4.30;3.83;;;;;;;36.43;30.49;100187.50;5113787;28;20036;-75
2021/07/24 07:48:06;;;;;;;3.95;3.65;;;;;;;36.94;30.40;100181.91;5112554;28;20047;-77
2021/07/24 07:50:35;;;;;;;4.80;3.33;;;;;;;37.26;29.14;100186.22;5112772;28;20027;-76
2021/07/24 07:53:04;;;;;;;4.93;3.95;;;;;;;37.46;28.54;100185.69;5114337;28;20036;-76
2021/07/24 07:55:35;;;;;;;4.07;3.67;;;;;;;37.37;28.84;100180.28;5112447;28;20035;-80
2021/07/24 07:58:03;;;;;;;3.53;3.22;;;;;;;37.81;29.20;100187.47;5112379;28;20065;-75
2021/07/24 08:00:34;;;;;;;6.55;3.65;;;;;;;38.17;29.14;100182.09;5112213;28;20115;-77
2021/07/24 08:03:02;;;;;;;4.85;4.43;;;;;;;38.45;28.82;100190.31;5112265;28;20016;-76
2021/07/24 08:05:28;;;;;;;4.47;3.95;;;;;;;38.55;28.63;100184.06;5115741;28;20067;-77
2021/07/24 08:07:56;;;;;;;6.75;3.92;;;;;;;37.44;29.11;100180.41;5116068;28;20070;-76
2021/07/24 08:10:22;;;;;;;4.97;3.80;;;;;;;37.34;29.97;100175.53;5116132;28;20035;-77
2021/07/24 08:12:51;;;;;;;6.00;3.53;;;;;;;37.86;29.79;100174.22;5116142;28;20091;-78
2021/07/24 08:15:19;;;;;;;4.43;4.03;;;;;;;37.93;29.68;100171.47;5115642;28;20048;-75
2021/07/24 08:17:45;;;;;;;5.90;3.83;;;;;;;38.28;29.74;100172.44;5116213;28;20096;-78
2021/07/24 08:20:13;;;;;;;5.95;4.97;;;;;;;37.02;30.65;100166.78;5115904;28;20119;-79
2021/07/24 08:22:41;;;;;;;5.75;4.65;;;;;;;35.86;32.80;100172.00;5116051;28;20088;-82
2021/07/24 08:25:07;;;;;;;6.15;4.55;;;;;;;35.34;33.33;100169.22;5132797;27;20032;-81
2021/07/24 08:27:34;;;;;;;6.45;4.72;;;;;;;34.82;34.31;100172.91;5115507;28;20030;-78
2021/07/24 08:30:03;;;;;;;7.53;4.82;;;;;;;35.27;33.90;100169.81;5099111;28;20036;-75
2021/07/24 08:32:31;;;;;;;7.18;4.78;;;;;;;35.19;34.11;100172.47;5115813;28;20028;-75
2021/07/24 08:34:59;;;;;;;7.80;5.32;;;;;;;35.67;33.47;100166.09;5115904;28;20089;-78
2021/07/24 08:37:28;;;;;;;7.43;5.03;;;;;;;36.28;32.30;100168.97;5115931;28;20023;-76
2021/07/24 08:39:53;;;;;;;8.27;5.47;;;;;;;36.50;31.90;100173.75;5116846;28;20409;-76
2021/07/24 08:42:42;;;;;;;8.45;5.25;;;;;;;36.70;31.39;100176.13;5132737;27;20114;-76
2021/07/24 08:45:13;;;;;;;6.22;5.38;;;;;;;36.53;31.46;100169.75;5132692;27;20470;-76
2021/07/24 08:47:40;;;;;;;8.18;5.28;;;;;;;36.45;31.72;100173.28;5117308;28;20107;-76
2021/07/24 08:50:08;;;;;;;5.88;5.00;;;;;;;36.25;32.08;100170.84;5115539;28;20027;-76
2021/07/24 08:52:34;;;;;;;6.63;4.78;;;;;;;36.84;31.69;100177.81;5132973;27;20347;-77
2021/07/24 08:55:07;;;;;;;7.57;5.30;;;;;;;36.79;31.36;100163.38;5115294;28;20118;-77
2021/07/24 08:57:41;;;;;;;5.38;4.85;;;;;;;36.23;32.44;100172.72;5116222;27;20035;-76
2021/07/24 09:00:10;;;;;;;7.45;5.38;;;;;;;36.16;31.88;100171.19;5115646;28;20417;-79
2021/07/24 09:02:38;;;;;;;6.38;4.90;;;;;;;37.05;31.05;100166.47;5117134;28;20105;-79
2021/07/24 09:05:05;;;;;;;6.18;5.57;;;;;;;37.81;30.81;100172.94;5115413;28;20542;-76
2021/07/24 09:07:36;;;;;;;6.53;5.82;;;;;;;38.03;31.10;100168.13;5132190;27;20024;-78
2021/07/24 09:10:05;;;;;;;5.85;5.38;;;;;;;37.85;31.41;100167.63;5115382;28;20122;-75
2021/07/24 09:12:35;;;;;;;6.18;5.05;;;;;;;38.24;31.04;100169.81;5111702;28;20038;-76
2021/07/24 09:15:05;;;;;;;7.90;5.60;;;;;;;38.37;31.35;100172.00;5115271;27;20052;-79
2021/07/24 09:17:31;;;;;;;6.63;5.45;;;;;;;37.90;32.56;100169.66;5132613;27;20060;-76
2021/07/24 09:20:02;;;;;;;6.03;5.35;;;;;;;37.82;33.42;100167.94;5115140;28;20031;-76
2021/07/24 09:22:36;;;;;;;5.43;4.80;;;;;;;37.91;33.58;100170.44;5115785;28;20027;-77
2021/07/24 09:25:13;;;;;;;5.18;4.68;;;;;;;38.07;32.93;100168.56;5116341;28;20036;-76
2021/07/24 09:27:44;;;;;;;7.70;4.38;;;;;;;37.73;34.22;100163.34;5116069;28;20407;-80
2021/07/24 09:30:28;;;;;;;9.90;4.57;;;;;;;38.51;32.81;100164.03;5114752;28;20063;-75
2021/07/24 09:33:03;;;;;;;6.05;4.25;;;;;;;38.59;33.16;100164.94;5115634;28;20050;-79
2021/07/24 09:35:36;;;;;;;8.55;4.32;;;;;;;38.31;32.80;100162.59;5114934;28;20535;-79
2021/07/24 09:38:04;;;;;;;8.23;4.90;;;;;;;37.80;33.51;100159.00;5114611;28;20088;-79
2021/07/24 09:40:32;;;;;;;6.47;5.15;;;;;;;37.56;33.30;100157.03;5115549;28;20023;-80
2021/07/24 09:43:04;;;;;;;6.82;5.30;;;;;;;37.21;34.04;100159.66;5097772;28;20036;-80
2021/07/24 09:45:33;;;;;;;6.30;5.45;;;;;;;36.13;36.30;100152.81;5114506;28;20031;-76
2021/07/24 09:48:15;;;;;;;7.75;5.15;;;;;;;36.51;35.71;100163.75;5114397;28;20032;-79
2021/07/24 09:50:41;;;;;;;7.32;5.00;;;;;;;34.72;39.23;100148.53;5114929;28;20064;-79
2021/07/24 09:53:09;;;;;;;7.32;5.72;;;;;;;34.55;40.10;100146.47;5114352;28;20027;-80
2021/07/24 09:55:45;;;;;;;5.00;4.60;;;;;;;35.05;39.46;100142.59;5114834;28;20114;-75
2021/07/24 09:58:19;;;;;;;7.88;4.90;;;;;;;35.73;38.33;100145.78;5114143;28;20461;-75
2021/07/24 10:00:49;;;;;;;7.70;4.38;;;;;;;35.20;39.34;100144.34;5115341;28;20035;-76
2021/07/24 10:03:17;;;;;;;5.82;4.45;;;;;;;36.34;36.82;100132.06;5114686;28;20114;-77
2021/07/24 10:05:48;;;;;;;5.25;4.38;;;;;;;36.15;37.28;100137.78;5114063;28;20028;-76
2021/07/24 10:08:15;;;;;;;4.38;3.90;;;;;;;36.39;37.09;100140.66;5114043;28;20038;-77
2021/07/24 10:10:42;;;;;;;5.05;3.97;;;;;;;35.75;37.88;100139.47;5114233;28;20501;-74
2021/07/24 10:13:14;;;;;;;4.47;3.78;;;;;;;36.31;36.94;100136.81;5130905;27;20030;-75
2021/07/24 10:15:42;;;;;;;4.93;3.38;;;;;;;36.33;36.52;100134.16;5110889;28;20410;-75
2021/07/24 10:18:10;;;;;;;5.28;3.90;;;;;;;36.23;36.67;100138.75;5113696;28;20037;-76
2021/07/24 10:20:47;;;;;;;5.80;4.65;;;;;;;36.14;36.79;100136.22;5130778;27;20024;-74
2021/07/24 10:23:24;;;;;;;6.65;4.40;;;;;;;36.10;36.20;100136.50;5114774;28;20110;-76
2021/07/24 10:26:12;;;;;;;5.82;3.83;;;;;;;35.72;37.27;100135.53;5114357;28;20043;-76
2021/07/24 10:28:40;;;;;;;7.35;4.03;;;;;;;35.45;38.46;100134.47;5130392;27;20034;-77
2021/07/24 10:31:15;;;;;;;5.57;3.95;;;;;;;36.06;36.29;100135.22;5114358;28;20356;-74
2021/07/24 10:33:42;;;;;;;4.15;3.70;;;;;;;35.63;37.21;100127.19;5113535;28;20028;-78
2021/07/24 10:36:15;;;;;;;6.10;4.30;;;;;;;35.43;37.48;100125.50;5113414;28;20038;-76
2021/07/24 10:39:01;;;;;;;6.35;3.78;;;;;;;35.46;37.41;100123.66;5114770;28;20369;-76
2021/07/24 10:41:29;;;;;;;4.07;3.60;;;;;;;34.96;37.68;100105.34;5114431;28;20027;-74
2021/07/24 10:44:13;;;;;;;5.22;4.45;;;;;;;34.67;38.21;100124.88;5113381;28;20042;-75
2021/07/24 10:46:43;;;;;;;4.82;3.83;;;;;;;35.01;37.83;100106.63;5113544;28;20031;-77
2021/07/24 10:49:34;;;;;;;7.63;4.10;;;;;;;35.21;37.35;100132.25;5113260;28;20027;-74
2021/07/24 10:52:03;;;;;;;4.30;3.78;;;;;;;35.35;36.86;100119.50;5112744;28;20031;-74
2021/07/24 10:54:36;;;;;;;4.82;4.05;;;;;;;35.38;36.31;100132.91;5113701;28;20035;-76
2021/07/24 10:57:05;;;;;;;7.72;3.50;;;;;;;35.03;36.99;100121.31;5130645;27;20028;-77
2021/07/24 10:59:33;;;;;;;5.15;3.63;;;;;;;35.36;36.62;100115.28;5113126;28;20024;-74
2021/07/24 11:02:01;;;;;;;6.93;4.15;;;;;;;34.81;38.50;100122.22;5114406;28;20031;-74
2021/07/24 11:04:35;;;;;;;4.93;4.32;;;;;;;34.62;38.42;100122.03;5114230;28;20031;-77
2021/07/24 11:07:15;;;;;;;4.68;3.50;;;;;;;34.80;37.28;100120.66;5113854;28;20416;-74
2021/07/24 11:09:43;;;;;;;3.85;3.40;;;;;;;34.64;36.53;100122.31;5112985;28;20481;-77
2021/07/24 11:12:15;;;;;;;5.93;3.65;;;;;;;34.94;36.57;100119.53;5095927;28;20063;-77
2021/07/24 11:14:42;;;;;;;;;;;;;;;34.95;36.11;100120.34;5113079;28;20055;-74
2021/07/24 11:17:16;;;;;;;6.38;3.30;;;;;;;34.71;37.03;100095.72;5113456;28;19922;-75
2021/07/24 11:20:07;;;;;;;3.67;3.30;;;;;;;34.28;38.87;100121.34;5113328;28;20470;-75
2021/07/24 11:23:04;;;;;;;3.90;3.60;;;;;;;34.20;39.74;100120.31;5112578;28;20036;-77
2021/07/24 11:25:32;;;;;;;6.70;3.88;;;;;;;34.72;38.88;100120.41;5129848;28;20115;-77
2021/07/24 11:28:04;;;;;;;5.43;3.85;;;;;;;34.70;38.59;100122.28;5113047;28;20541;-75
2021/07/24 11:30:29;;;;;;;5.80;3.88;;;;;;;34.90;37.89;100119.00;5129928;28;20061;-78
2021/07/24 11:32:56;;;;;;;4.38;3.65;;;;;;;34.90;38.24;100124.78;5113037;28;20035;-76
2021/07/24 11:35:30;;;;;;;4.25;3.63;;;;;;;34.67;39.37;100113.34;5129733;28;20020;-75
2021/07/24 11:37:57;;;;;;;3.38;3.08;;;;;;;34.43;37.92;100098.72;5113622;28;20034;-76
2021/07/24 11:40:27;;;;;;;4.78;4.03;;;;;;;34.60;38.98;100104.44;5117414;28;20024;-75
2021/07/24 11:43:07;;;;;;;4.53;3.45;;;;;;;34.86;37.61;100099.06;5116674;28;20062;-75